sensor_id;sensor_type;location;lat;lon;timestamp;P1;durP1;ratioP1;P2;durP2;ratioP2
66163;SDS011;52962;51.088;3.096;2023-05-17T00:01:15;2.17;;;1.30;;
66163;SDS011;52962;51.088;3.096;2023-05-17T00:03:43;1.92;;;1.00;;
66163;SDS011;52962;51.088;3.096;2023-05-17T00:06:11;5.40;;;0.90;;
66163;SDS011;52962;51.088;3.096;2023-05-17T00:08:39;1.23;;;1.00;;
66163;SDS011;52962;51.088;3.096;2023-05-17T00:11:08;2.42;;;0.73;;
66163;SDS011;52962;51.088;3.096;2023-05-17T00:13:36;2.58;;;0.85;;
66163;SDS011;52962;51.088;3.096;2023-05-17T00:16:05;0.55;;;0.55;;
66163;SDS011;52962;51.088;3.096;2023-05-17T00:18:33;1.85;;;0.90;;
66163;SDS011;52962;51.088;3.096;2023-05-17T00:23:29;1.48;;;0.95;;
66163;SDS011;52962;51.088;3.096;2023-05-17T00:25:57;2.20;;;0.90;;
66163;SDS011;52962;51.088;3.096;2023-05-17T00:28:26;1.77;;;1.00;;
66163;SDS011;52962;51.088;3.096;2023-05-17T00:30:55;1.88;;;1.30;;
66163;SDS011;52962;51.088;3.096;2023-05-17T00:33:23;1.65;;;0.90;;
66163;SDS011;52962;51.088;3.096;2023-05-17T00:35:51;3.70;;;0.73;;
66163;SDS011;52962;51.088;3.096;2023-05-17T00:38:19;1.55;;;0.98;;
66163;SDS011;52962;51.088;3.096;2023-05-17T00:40:48;1.17;;;0.90;;
66163;SDS011;52962;51.088;3.096;2023-05-17T00:43:16;4.53;;;0.80;;
66163;SDS011;52962;51.088;3.096;2023-05-17T00:45:46;1.33;;;0.90;;
66163;SDS011;52962;51.088;3.096;2023-05-17T00:48:15;3.50;;;1.10;;
66163;SDS011;52962;51.088;3.096;2023-05-17T00:50:44;2.03;;;0.75;;
66163;SDS011;52962;51.088;3.096;2023-05-17T00:53:13;1.50;;;0.77;;
66163;SDS011;52962;51.088;3.096;2023-05-17T00:55:41;1.40;;;0.60;;
66163;SDS011;52962;51.088;3.096;2023-05-17T00:58:10;2.30;;;1.33;;
66163;SDS011;52962;51.088;3.096;2023-05-17T01:00:38;1.20;;;1.02;;
66163;SDS011;52962;51.088;3.096;2023-05-17T01:03:07;0.55;;;0.52;;
66163;SDS011;52962;51.088;3.096;2023-05-17T01:05:35;1.92;;;0.65;;
66163;SDS011;52962;51.088;3.096;2023-05-17T01:08:03;3.63;;;0.95;;
66163;SDS011;52962;51.088;3.096;2023-05-17T01:10:34;1.08;;;0.68;;
66163;SDS011;52962;51.088;3.096;2023-05-17T01:13:04;2.20;;;0.73;;
66163;SDS011;52962;51.088;3.096;2023-05-17T01:15:37;4.72;;;1.17;;
66163;SDS011;52962;51.088;3.096;2023-05-17T01:18:11;0.75;;;0.65;;
66163;SDS011;52962;51.088;3.096;2023-05-17T01:20:46;0.95;;;0.60;;
66163;SDS011;52962;51.088;3.096;2023-05-17T01:23:23;0.98;;;0.60;;
66163;SDS011;52962;51.088;3.096;2023-05-17T01:26:06;2.15;;;0.85;;
66163;SDS011;52962;51.088;3.096;2023-05-17T01:28:36;1.48;;;1.10;;
66163;SDS011;52962;51.088;3.096;2023-05-17T01:31:04;0.98;;;0.55;;
66163;SDS011;52962;51.088;3.096;2023-05-17T01:33:35;1.05;;;0.75;;
66163;SDS011;52962;51.088;3.096;2023-05-17T01:36:04;0.68;;;0.68;;
66163;SDS011;52962;51.088;3.096;2023-05-17T01:38:33;1.20;;;1.10;;
66163;SDS011;52962;51.088;3.096;2023-05-17T01:41:03;0.75;;;0.65;;
66163;SDS011;52962;51.088;3.096;2023-05-17T01:43:36;0.77;;;0.75;;
66163;SDS011;52962;51.088;3.096;2023-05-17T01:46:10;2.13;;;0.85;;
66163;SDS011;52962;51.088;3.096;2023-05-17T01:48:39;2.30;;;0.80;;
66163;SDS011;52962;51.088;3.096;2023-05-17T01:51:10;2.60;;;0.60;;
66163;SDS011;52962;51.088;3.096;2023-05-17T01:53:45;0.80;;;0.80;;
66163;SDS011;52962;51.088;3.096;2023-05-17T01:56:15;5.35;;;0.88;;
66163;SDS011;52962;51.088;3.096;2023-05-17T01:58:47;0.77;;;0.68;;
66163;SDS011;52962;51.088;3.096;2023-05-17T02:01:17;2.08;;;1.02;;
66163;SDS011;52962;51.088;3.096;2023-05-17T02:03:46;2.75;;;0.85;;
66163;SDS011;52962;51.088;3.096;2023-05-17T02:06:14;1.25;;;0.85;;
66163;SDS011;52962;51.088;3.096;2023-05-17T02:08:42;1.63;;;1.00;;
66163;SDS011;52962;51.088;3.096;2023-05-17T02:11:11;1.15;;;0.80;;
66163;SDS011;52962;51.088;3.096;2023-05-17T02:13:39;1.33;;;0.75;;
66163;SDS011;52962;51.088;3.096;2023-05-17T02:16:08;2.28;;;1.13;;
66163;SDS011;52962;51.088;3.096;2023-05-17T02:18:36;1.67;;;1.00;;
66163;SDS011;52962;51.088;3.096;2023-05-17T02:21:06;3.20;;;0.80;;
66163;SDS011;52962;51.088;3.096;2023-05-17T02:23:35;2.55;;;0.80;;
66163;SDS011;52962;51.088;3.096;2023-05-17T02:26:03;1.35;;;1.25;;
66163;SDS011;52962;51.088;3.096;2023-05-17T02:28:32;2.58;;;0.95;;
66163;SDS011;52962;51.088;3.096;2023-05-17T02:31:01;3.58;;;0.77;;
66163;SDS011;52962;51.088;3.096;2023-05-17T02:33:31;2.90;;;0.90;;
66163;SDS011;52962;51.088;3.096;2023-05-17T02:35:59;1.35;;;1.15;;
66163;SDS011;52962;51.088;3.096;2023-05-17T02:38:27;4.80;;;1.08;;
66163;SDS011;52962;51.088;3.096;2023-05-17T02:40:54;3.95;;;1.10;;
66163;SDS011;52962;51.088;3.096;2023-05-17T02:43:22;1.75;;;0.82;;
66163;SDS011;52962;51.088;3.096;2023-05-17T02:45:50;1.63;;;0.73;;
66163;SDS011;52962;51.088;3.096;2023-05-17T02:48:18;1.58;;;0.70;;
66163;SDS011;52962;51.088;3.096;2023-05-17T02:50:48;3.30;;;1.20;;
66163;SDS011;52962;51.088;3.096;2023-05-17T02:53:16;1.52;;;1.08;;
66163;SDS011;52962;51.088;3.096;2023-05-17T02:55:44;1.80;;;1.00;;
66163;SDS011;52962;51.088;3.096;2023-05-17T02:58:13;1.67;;;1.10;;
66163;SDS011;52962;51.088;3.096;2023-05-17T03:00:43;2.17;;;1.02;;
66163;SDS011;52962;51.088;3.096;2023-05-17T03:03:12;2.60;;;0.80;;
66163;SDS011;52962;51.088;3.096;2023-05-17T03:05:40;0.85;;;0.85;;
66163;SDS011;52962;51.088;3.096;2023-05-17T03:10:38;1.25;;;0.88;;
66163;SDS011;52962;51.088;3.096;2023-05-17T03:13:07;0.80;;;0.80;;
66163;SDS011;52962;51.088;3.096;2023-05-17T03:15:38;2.47;;;0.77;;
66163;SDS011;52962;51.088;3.096;2023-05-17T03:18:06;1.13;;;0.70;;
66163;SDS011;52962;51.088;3.096;2023-05-17T03:20:36;1.38;;;1.05;;
66163;SDS011;52962;51.088;3.096;2023-05-17T03:23:05;1.00;;;0.95;;
66163;SDS011;52962;51.088;3.096;2023-05-17T03:25:39;0.80;;;0.68;;
66163;SDS011;52962;51.088;3.096;2023-05-17T03:28:07;1.30;;;0.88;;
66163;SDS011;52962;51.088;3.096;2023-05-17T03:30:35;1.17;;;0.75;;
66163;SDS011;52962;51.088;3.096;2023-05-17T03:33:03;4.10;;;1.13;;
66163;SDS011;52962;51.088;3.096;2023-05-17T03:38:00;1.60;;;0.88;;
66163;SDS011;52962;51.088;3.096;2023-05-17T03:40:29;1.33;;;0.90;;
66163;SDS011;52962;51.088;3.096;2023-05-17T03:42:59;0.85;;;0.85;;
66163;SDS011;52962;51.088;3.096;2023-05-17T03:45:28;1.33;;;0.98;;
66163;SDS011;52962;51.088;3.096;2023-05-17T03:47:56;1.10;;;1.00;;
66163;SDS011;52962;51.088;3.096;2023-05-17T03:50:25;2.00;;;1.35;;
66163;SDS011;52962;51.088;3.096;2023-05-17T03:52:54;1.85;;;1.42;;
66163;SDS011;52962;51.088;3.096;2023-05-17T03:55:22;1.33;;;1.15;;
66163;SDS011;52962;51.088;3.096;2023-05-17T03:57:50;1.52;;;1.10;;
66163;SDS011;52962;51.088;3.096;2023-05-17T04:00:19;1.88;;;1.35;;
66163;SDS011;52962;51.088;3.096;2023-05-17T04:02:50;2.42;;;1.27;;
66163;SDS011;52962;51.088;3.096;2023-05-17T04:05:18;2.17;;;0.88;;
66163;SDS011;52962;51.088;3.096;2023-05-17T04:07:47;1.83;;;0.90;;
66163;SDS011;52962;51.088;3.096;2023-05-17T04:10:16;1.05;;;0.95;;
66163;SDS011;52962;51.088;3.096;2023-05-17T04:15:13;4.90;;;1.00;;
66163;SDS011;52962;51.088;3.096;2023-05-17T04:17:43;1.52;;;0.82;;
66163;SDS011;52962;51.088;3.096;2023-05-17T04:20:11;3.45;;;1.05;;
66163;SDS011;52962;51.088;3.096;2023-05-17T04:22:40;0.80;;;0.80;;
66163;SDS011;52962;51.088;3.096;2023-05-17T04:25:09;1.27;;;1.17;;
66163;SDS011;52962;51.088;3.096;2023-05-17T04:27:38;2.67;;;1.30;;
66163;SDS011;52962;51.088;3.096;2023-05-17T04:30:08;2.83;;;1.08;;
66163;SDS011;52962;51.088;3.096;2023-05-17T04:32:36;1.70;;;1.52;;
66163;SDS011;52962;51.088;3.096;2023-05-17T04:35:07;3.10;;;1.60;;
66163;SDS011;52962;51.088;3.096;2023-05-17T04:37:37;1.83;;;1.35;;
66163;SDS011;52962;51.088;3.096;2023-05-17T04:40:16;3.63;;;2.10;;
66163;SDS011;52962;51.088;3.096;2023-05-17T04:42:45;2.65;;;1.63;;
66163;SDS011;52962;51.088;3.096;2023-05-17T04:45:13;4.88;;;1.63;;
66163;SDS011;52962;51.088;3.096;2023-05-17T04:47:41;6.63;;;2.15;;
66163;SDS011;52962;51.088;3.096;2023-05-17T04:50:11;2.90;;;1.38;;
66163;SDS011;52962;51.088;3.096;2023-05-17T04:52:39;3.47;;;1.75;;
66163;SDS011;52962;51.088;3.096;2023-05-17T04:55:08;3.95;;;1.65;;
66163;SDS011;52962;51.088;3.096;2023-05-17T04:57:38;2.10;;;1.50;;
66163;SDS011;52962;51.088;3.096;2023-05-17T05:00:07;1.60;;;1.30;;
66163;SDS011;52962;51.088;3.096;2023-05-17T05:02:39;3.92;;;2.70;;
66163;SDS011;52962;51.088;3.096;2023-05-17T05:05:09;1.65;;;1.45;;
66163;SDS011;52962;51.088;3.096;2023-05-17T05:07:39;2.40;;;1.58;;
66163;SDS011;52962;51.088;3.096;2023-05-17T05:10:08;1.05;;;1.05;;
66163;SDS011;52962;51.088;3.096;2023-05-17T05:12:37;3.53;;;2.05;;
66163;SDS011;52962;51.088;3.096;2023-05-17T05:15:05;3.10;;;1.67;;
66163;SDS011;52962;51.088;3.096;2023-05-17T05:17:36;2.08;;;1.30;;
66163;SDS011;52962;51.088;3.096;2023-05-17T05:20:04;1.63;;;0.95;;
66163;SDS011;52962;51.088;3.096;2023-05-17T05:22:32;1.63;;;1.20;;
66163;SDS011;52962;51.088;3.096;2023-05-17T05:27:30;1.80;;;1.50;;
66163;SDS011;52962;51.088;3.096;2023-05-17T05:29:59;3.35;;;2.33;;
66163;SDS011;52962;51.088;3.096;2023-05-17T05:32:28;1.88;;;1.77;;
66163;SDS011;52962;51.088;3.096;2023-05-17T05:34:56;2.55;;;1.70;;
66163;SDS011;52962;51.088;3.096;2023-05-17T05:37:24;1.52;;;1.20;;
66163;SDS011;52962;51.088;3.096;2023-05-17T05:39:52;4.18;;;2.08;;
66163;SDS011;52962;51.088;3.096;2023-05-17T05:42:20;1.63;;;1.38;;
66163;SDS011;52962;51.088;3.096;2023-05-17T05:44:49;1.85;;;1.67;;
66163;SDS011;52962;51.088;3.096;2023-05-17T05:47:19;2.40;;;1.80;;
66163;SDS011;52962;51.088;3.096;2023-05-17T05:49:47;4.40;;;1.60;;
66163;SDS011;52962;51.088;3.096;2023-05-17T05:52:15;1.70;;;1.30;;
66163;SDS011;52962;51.088;3.096;2023-05-17T05:54:44;2.00;;;1.65;;
66163;SDS011;52962;51.088;3.096;2023-05-17T05:57:11;3.70;;;1.42;;
66163;SDS011;52962;51.088;3.096;2023-05-17T05:59:39;4.85;;;1.85;;
66163;SDS011;52962;51.088;3.096;2023-05-17T06:02:09;2.28;;;1.58;;
66163;SDS011;52962;51.088;3.096;2023-05-17T06:04:36;3.05;;;1.65;;
66163;SDS011;52962;51.088;3.096;2023-05-17T06:07:11;3.28;;;1.60;;
66163;SDS011;52962;51.088;3.096;2023-05-17T06:09:39;3.88;;;1.75;;
66163;SDS011;52962;51.088;3.096;2023-05-17T06:12:07;3.13;;;1.83;;
66163;SDS011;52962;51.088;3.096;2023-05-17T06:14:35;3.92;;;1.70;;
66163;SDS011;52962;51.088;3.096;2023-05-17T06:17:04;3.53;;;1.98;;
66163;SDS011;52962;51.088;3.096;2023-05-17T06:19:33;2.25;;;2.03;;
66163;SDS011;52962;51.088;3.096;2023-05-17T06:22:01;1.95;;;1.77;;
66163;SDS011;52962;51.088;3.096;2023-05-17T06:24:29;1.83;;;1.70;;
66163;SDS011;52962;51.088;3.096;2023-05-17T06:26:58;6.35;;;2.20;;
66163;SDS011;52962;51.088;3.096;2023-05-17T06:34:23;3.20;;;1.50;;
66163;SDS011;52962;51.088;3.096;2023-05-17T06:36:52;6.03;;;2.08;;
66163;SDS011;52962;51.088;3.096;2023-05-17T06:39:20;6.35;;;2.15;;
66163;SDS011;52962;51.088;3.096;2023-05-17T06:41:48;6.47;;;1.85;;
66163;SDS011;52962;51.088;3.096;2023-05-17T06:44:16;4.32;;;1.50;;
66163;SDS011;52962;51.088;3.096;2023-05-17T06:46:44;3.80;;;2.17;;
66163;SDS011;52962;51.088;3.096;2023-05-17T06:49:12;2.40;;;2.20;;
66163;SDS011;52962;51.088;3.096;2023-05-17T06:51:40;5.82;;;2.28;;
66163;SDS011;52962;51.088;3.096;2023-05-17T06:54:09;3.75;;;2.15;;
66163;SDS011;52962;51.088;3.096;2023-05-17T06:56:37;2.08;;;1.58;;
66163;SDS011;52962;51.088;3.096;2023-05-17T06:59:04;3.47;;;1.80;;
66163;SDS011;52962;51.088;3.096;2023-05-17T07:01:33;2.22;;;1.55;;
66163;SDS011;52962;51.088;3.096;2023-05-17T07:04:01;3.05;;;1.92;;
66163;SDS011;52962;51.088;3.096;2023-05-17T07:06:29;7.60;;;1.80;;
66163;SDS011;52962;51.088;3.096;2023-05-17T07:08:56;3.13;;;1.70;;
66163;SDS011;52962;51.088;3.096;2023-05-17T07:11:26;3.03;;;1.55;;
66163;SDS011;52962;51.088;3.096;2023-05-17T07:13:54;4.25;;;1.98;;
66163;SDS011;52962;51.088;3.096;2023-05-17T07:16:21;2.95;;;1.40;;
66163;SDS011;52962;51.088;3.096;2023-05-17T07:18:49;6.45;;;2.10;;
66163;SDS011;52962;51.088;3.096;2023-05-17T07:21:18;1.95;;;1.50;;
66163;SDS011;52962;51.088;3.096;2023-05-17T07:23:45;5.10;;;2.20;;
66163;SDS011;52962;51.088;3.096;2023-05-17T07:26:13;1.77;;;1.30;;
66163;SDS011;52962;51.088;3.096;2023-05-17T07:28:43;5.78;;;1.98;;
66163;SDS011;52962;51.088;3.096;2023-05-17T07:31:10;1.13;;;0.95;;
66163;SDS011;52962;51.088;3.096;2023-05-17T07:33:38;2.85;;;1.65;;
66163;SDS011;52962;51.088;3.096;2023-05-17T07:36:07;3.05;;;1.35;;
66163;SDS011;52962;51.088;3.096;2023-05-17T07:38:34;2.75;;;1.85;;
66163;SDS011;52962;51.088;3.096;2023-05-17T07:41:02;4.38;;;1.48;;
66163;SDS011;52962;51.088;3.096;2023-05-17T07:43:35;2.83;;;1.13;;
66163;SDS011;52962;51.088;3.096;2023-05-17T07:46:04;3.47;;;1.75;;
66163;SDS011;52962;51.088;3.096;2023-05-17T07:48:32;3.33;;;1.13;;
66163;SDS011;52962;51.088;3.096;2023-05-17T07:51:00;5.05;;;1.70;;
66163;SDS011;52962;51.088;3.096;2023-05-17T07:53:28;4.00;;;1.15;;
66163;SDS011;52962;51.088;3.096;2023-05-17T07:55:56;5.97;;;1.67;;
66163;SDS011;52962;51.088;3.096;2023-05-17T07:58:24;2.88;;;1.30;;
66163;SDS011;52962;51.088;3.096;2023-05-17T08:00:52;2.00;;;1.33;;
66163;SDS011;52962;51.088;3.096;2023-05-17T08:03:21;3.78;;;1.40;;
66163;SDS011;52962;51.088;3.096;2023-05-17T08:05:49;2.92;;;1.45;;
66163;SDS011;52962;51.088;3.096;2023-05-17T08:08:17;2.60;;;1.38;;
66163;SDS011;52962;51.088;3.096;2023-05-17T08:10:46;4.18;;;1.63;;
66163;SDS011;52962;51.088;3.096;2023-05-17T08:13:15;3.63;;;1.42;;
66163;SDS011;52962;51.088;3.096;2023-05-17T08:15:43;2.28;;;1.30;;
66163;SDS011;52962;51.088;3.096;2023-05-17T08:18:11;1.65;;;1.35;;
66163;SDS011;52962;51.088;3.096;2023-05-17T08:20:40;4.13;;;1.77;;
66163;SDS011;52962;51.088;3.096;2023-05-17T08:23:08;2.28;;;1.15;;
66163;SDS011;52962;51.088;3.096;2023-05-17T08:25:36;4.85;;;1.75;;
66163;SDS011;52962;51.088;3.096;2023-05-17T08:28:04;3.45;;;1.88;;
66163;SDS011;52962;51.088;3.096;2023-05-17T08:30:32;2.63;;;1.63;;
66163;SDS011;52962;51.088;3.096;2023-05-17T08:33:00;1.80;;;1.38;;
66163;SDS011;52962;51.088;3.096;2023-05-17T08:37:58;1.58;;;1.10;;
66163;SDS011;52962;51.088;3.096;2023-05-17T08:40:26;0.73;;;0.73;;
66163;SDS011;52962;51.088;3.096;2023-05-17T08:45:22;1.42;;;1.02;;
66163;SDS011;52962;51.088;3.096;2023-05-17T08:47:50;3.47;;;1.42;;
66163;SDS011;52962;51.088;3.096;2023-05-17T08:50:20;4.32;;;1.35;;
66163;SDS011;52962;51.088;3.096;2023-05-17T08:52:48;2.65;;;1.45;;
66163;SDS011;52962;51.088;3.096;2023-05-17T08:55:18;3.78;;;1.40;;
66163;SDS011;52962;51.088;3.096;2023-05-17T08:57:46;1.80;;;1.30;;
66163;SDS011;52962;51.088;3.096;2023-05-17T09:00:15;3.97;;;1.40;;
66163;SDS011;52962;51.088;3.096;2023-05-17T09:02:46;3.03;;;1.42;;
66163;SDS011;52962;51.088;3.096;2023-05-17T09:05:14;1.73;;;1.05;;
66163;SDS011;52962;51.088;3.096;2023-05-17T09:07:43;2.25;;;0.90;;
66163;SDS011;52962;51.088;3.096;2023-05-17T09:10:10;3.75;;;0.88;;
66163;SDS011;52962;51.088;3.096;2023-05-17T09:15:15;4.68;;;1.40;;
66163;SDS011;52962;51.088;3.096;2023-05-17T09:17:43;3.13;;;1.30;;
66163;SDS011;52962;51.088;3.096;2023-05-17T09:20:20;2.05;;;1.10;;
66163;SDS011;52962;51.088;3.096;2023-05-17T09:22:49;1.15;;;1.05;;
66163;SDS011;52962;51.088;3.096;2023-05-17T09:25:22;2.47;;;1.40;;
66163;SDS011;52962;51.088;3.096;2023-05-17T09:27:51;2.88;;;1.00;;
66163;SDS011;52962;51.088;3.096;2023-05-17T09:30:25;2.38;;;1.38;;
66163;SDS011;52962;51.088;3.096;2023-05-17T09:32:54;2.45;;;1.20;;
66163;SDS011;52962;51.088;3.096;2023-05-17T09:35:26;3.05;;;1.30;;
66163;SDS011;52962;51.088;3.096;2023-05-17T09:37:55;2.10;;;1.30;;
66163;SDS011;52962;51.088;3.096;2023-05-17T09:40:24;3.53;;;1.38;;
66163;SDS011;52962;51.088;3.096;2023-05-17T09:42:52;3.10;;;1.27;;
66163;SDS011;52962;51.088;3.096;2023-05-17T09:45:21;1.70;;;1.10;;
66163;SDS011;52962;51.088;3.096;2023-05-17T09:47:50;2.17;;;1.38;;
66163;SDS011;52962;51.088;3.096;2023-05-17T09:50:18;3.10;;;1.58;;
66163;SDS011;52962;51.088;3.096;2023-05-17T09:52:50;2.25;;;1.65;;
66163;SDS011;52962;51.088;3.096;2023-05-17T09:55:18;2.20;;;1.42;;
66163;SDS011;52962;51.088;3.096;2023-05-17T09:57:53;3.85;;;1.77;;
66163;SDS011;52962;51.088;3.096;2023-05-17T10:00:30;3.28;;;1.13;;
66163;SDS011;52962;51.088;3.096;2023-05-17T10:02:59;2.55;;;1.42;;
66163;SDS011;52962;51.088;3.096;2023-05-17T10:05:28;1.10;;;0.95;;
66163;SDS011;52962;51.088;3.096;2023-05-17T10:07:57;2.55;;;0.95;;
66163;SDS011;52962;51.088;3.096;2023-05-17T10:10:25;3.40;;;1.10;;
66163;SDS011;52962;51.088;3.096;2023-05-17T10:12:53;3.67;;;1.10;;
66163;SDS011;52962;51.088;3.096;2023-05-17T10:15:21;1.55;;;1.05;;
66163;SDS011;52962;51.088;3.096;2023-05-17T10:17:52;2.50;;;0.80;;
66163;SDS011;52962;51.088;3.096;2023-05-17T10:20:20;3.55;;;1.00;;
66163;SDS011;52962;51.088;3.096;2023-05-17T10:22:48;2.55;;;0.85;;
66163;SDS011;52962;51.088;3.096;2023-05-17T10:25:17;2.53;;;0.98;;
66163;SDS011;52962;51.088;3.096;2023-05-17T10:30:12;1.13;;;0.80;;
66163;SDS011;52962;51.088;3.096;2023-05-17T10:32:41;3.50;;;0.98;;
66163;SDS011;52962;51.088;3.096;2023-05-17T10:35:11;1.80;;;0.82;;
66163;SDS011;52962;51.088;3.096;2023-05-17T10:37:41;3.13;;;1.10;;
66163;SDS011;52962;51.088;3.096;2023-05-17T10:40:09;1.75;;;1.05;;
66163;SDS011;52962;51.088;3.096;2023-05-17T10:42:40;4.05;;;1.23;;
66163;SDS011;52962;51.088;3.096;2023-05-17T10:45:08;2.83;;;1.00;;
66163;SDS011;52962;51.088;3.096;2023-05-17T10:47:38;1.70;;;0.57;;
66163;SDS011;52962;51.088;3.096;2023-05-17T10:50:08;1.73;;;1.05;;
66163;SDS011;52962;51.088;3.096;2023-05-17T10:52:43;2.47;;;0.90;;
66163;SDS011;52962;51.088;3.096;2023-05-17T10:55:12;2.10;;;0.93;;
66163;SDS011;52962;51.088;3.096;2023-05-17T11:00:18;3.35;;;0.70;;
66163;SDS011;52962;51.088;3.096;2023-05-17T11:02:46;2.40;;;0.80;;
66163;SDS011;52962;51.088;3.096;2023-05-17T11:05:22;2.40;;;0.90;;
66163;SDS011;52962;51.088;3.096;2023-05-17T11:07:52;3.38;;;0.90;;
66163;SDS011;52962;51.088;3.096;2023-05-17T11:10:38;1.42;;;1.17;;
66163;SDS011;52962;51.088;3.096;2023-05-17T11:13:26;3.80;;;0.93;;
66163;SDS011;52962;51.088;3.096;2023-05-17T11:18:22;1.08;;;0.70;;
66163;SDS011;52962;51.088;3.096;2023-05-17T11:21:05;1.15;;;0.80;;
66163;SDS011;52962;51.088;3.096;2023-05-17T11:23:35;1.13;;;0.88;;
66163;SDS011;52962;51.088;3.096;2023-05-17T11:26:10;2.65;;;1.13;;
66163;SDS011;52962;51.088;3.096;2023-05-17T11:28:41;1.80;;;0.82;;
66163;SDS011;52962;51.088;3.096;2023-05-17T11:31:09;3.40;;;1.20;;
66163;SDS011;52962;51.088;3.096;2023-05-17T11:33:40;4.35;;;0.95;;
66163;SDS011;52962;51.088;3.096;2023-05-17T11:36:13;2.90;;;0.80;;
66163;SDS011;52962;51.088;3.096;2023-05-17T11:38:43;2.25;;;0.82;;
66163;SDS011;52962;51.088;3.096;2023-05-17T11:41:21;2.33;;;0.80;;
66163;SDS011;52962;51.088;3.096;2023-05-17T11:43:52;3.60;;;1.15;;
66163;SDS011;52962;51.088;3.096;2023-05-17T11:46:21;2.40;;;0.80;;
66163;SDS011;52962;51.088;3.096;2023-05-17T11:48:49;3.60;;;1.00;;
66163;SDS011;52962;51.088;3.096;2023-05-17T11:51:18;1.45;;;0.77;;
66163;SDS011;52962;51.088;3.096;2023-05-17T11:53:52;2.20;;;0.63;;
66163;SDS011;52962;51.088;3.096;2023-05-17T11:56:21;3.28;;;1.20;;
66163;SDS011;52962;51.088;3.096;2023-05-17T11:59:08;1.50;;;0.90;;
66163;SDS011;52962;51.088;3.096;2023-05-17T12:01:43;2.78;;;1.15;;
66163;SDS011;52962;51.088;3.096;2023-05-17T12:04:11;2.55;;;0.85;;
66163;SDS011;52962;51.088;3.096;2023-05-17T12:06:39;1.42;;;0.60;;
66163;SDS011;52962;51.088;3.096;2023-05-17T12:09:09;3.00;;;0.90;;
66163;SDS011;52962;51.088;3.096;2023-05-17T12:11:39;1.50;;;0.77;;
66163;SDS011;52962;51.088;3.096;2023-05-17T12:14:07;3.30;;;0.80;;
66163;SDS011;52962;51.088;3.096;2023-05-17T12:16:35;2.50;;;1.15;;
66163;SDS011;52962;51.088;3.096;2023-05-17T12:19:05;4.45;;;1.38;;
66163;SDS011;52962;51.088;3.096;2023-05-17T12:21:43;2.40;;;0.73;;
66163;SDS011;52962;51.088;3.096;2023-05-17T12:24:13;2.25;;;1.13;;
66163;SDS011;52962;51.088;3.096;2023-05-17T12:26:41;2.55;;;1.40;;
66163;SDS011;52962;51.088;3.096;2023-05-17T12:29:10;3.22;;;1.17;;
66163;SDS011;52962;51.088;3.096;2023-05-17T12:31:39;4.40;;;0.98;;
66163;SDS011;52962;51.088;3.096;2023-05-17T12:34:08;4.63;;;0.95;;
66163;SDS011;52962;51.088;3.096;2023-05-17T12:36:38;3.45;;;1.13;;
66163;SDS011;52962;51.088;3.096;2023-05-17T12:41:36;2.65;;;1.17;;
66163;SDS011;52962;51.088;3.096;2023-05-17T12:44:04;3.75;;;1.00;;
66163;SDS011;52962;51.088;3.096;2023-05-17T12:46:37;1.88;;;0.95;;
66163;SDS011;52962;51.088;3.096;2023-05-17T12:49:06;1.85;;;0.68;;
66163;SDS011;52962;51.088;3.096;2023-05-17T12:51:38;5.10;;;0.75;;
66163;SDS011;52962;51.088;3.096;2023-05-17T12:54:06;2.15;;;1.02;;
66163;SDS011;52962;51.088;3.096;2023-05-17T12:56:34;2.15;;;0.82;;
66163;SDS011;52962;51.088;3.096;2023-05-17T12:59:04;5.05;;;1.25;;
66163;SDS011;52962;51.088;3.096;2023-05-17T13:01:32;7.00;;;1.17;;
66163;SDS011;52962;51.088;3.096;2023-05-17T13:04:01;3.65;;;1.23;;
66163;SDS011;52962;51.088;3.096;2023-05-17T13:06:29;3.03;;;0.93;;
66163;SDS011;52962;51.088;3.096;2023-05-17T13:09:09;3.13;;;0.93;;
66163;SDS011;52962;51.088;3.096;2023-05-17T13:11:37;4.68;;;0.85;;
66163;SDS011;52962;51.088;3.096;2023-05-17T13:14:08;2.72;;;1.38;;
66163;SDS011;52962;51.088;3.096;2023-05-17T13:16:38;2.42;;;0.95;;
66163;SDS011;52962;51.088;3.096;2023-05-17T13:19:11;1.98;;;0.93;;
66163;SDS011;52962;51.088;3.096;2023-05-17T13:21:40;1.73;;;1.17;;
66163;SDS011;52962;51.088;3.096;2023-05-17T13:24:08;1.45;;;0.70;;
66163;SDS011;52962;51.088;3.096;2023-05-17T13:26:36;2.97;;;0.85;;
66163;SDS011;52962;51.088;3.096;2023-05-17T13:29:04;1.08;;;0.63;;
66163;SDS011;52962;51.088;3.096;2023-05-17T13:34:01;3.42;;;1.15;;
66163;SDS011;52962;51.088;3.096;2023-05-17T13:36:29;2.75;;;0.73;;
66163;SDS011;52962;51.088;3.096;2023-05-17T13:38:57;2.08;;;1.00;;
66163;SDS011;52962;51.088;3.096;2023-05-17T13:41:27;1.45;;;0.88;;
66163;SDS011;52962;51.088;3.096;2023-05-17T13:43:55;9.45;;;1.13;;
66163;SDS011;52962;51.088;3.096;2023-05-17T13:46:23;1.52;;;0.68;;
66163;SDS011;52962;51.088;3.096;2023-05-17T13:48:51;0.75;;;0.60;;
66163;SDS011;52962;51.088;3.096;2023-05-17T13:53:48;2.22;;;0.98;;
66163;SDS011;52962;51.088;3.096;2023-05-17T13:56:16;3.05;;;0.90;;
66163;SDS011;52962;51.088;3.096;2023-05-17T13:58:44;2.38;;;1.05;;
66163;SDS011;52962;51.088;3.096;2023-05-17T14:01:13;3.00;;;1.15;;
66163;SDS011;52962;51.088;3.096;2023-05-17T14:03:41;1.38;;;0.88;;
66163;SDS011;52962;51.088;3.096;2023-05-17T14:06:09;3.03;;;0.93;;
66163;SDS011;52962;51.088;3.096;2023-05-17T14:11:07;3.38;;;0.77;;
66163;SDS011;52962;51.088;3.096;2023-05-17T14:13:35;1.27;;;0.82;;
66163;SDS011;52962;51.088;3.096;2023-05-17T14:18:31;4.30;;;0.75;;
66163;SDS011;52962;51.088;3.096;2023-05-17T14:20:59;2.58;;;0.60;;
66163;SDS011;52962;51.088;3.096;2023-05-17T14:23:28;2.95;;;0.63;;
66163;SDS011;52962;51.088;3.096;2023-05-17T14:25:56;1.73;;;0.80;;
66163;SDS011;52962;51.088;3.096;2023-05-17T14:28:26;1.05;;;0.50;;
66163;SDS011;52962;51.088;3.096;2023-05-17T14:30:54;2.42;;;0.80;;
66163;SDS011;52962;51.088;3.096;2023-05-17T14:33:21;1.27;;;0.63;;
66163;SDS011;52962;51.088;3.096;2023-05-17T14:35:50;2.45;;;0.70;;
66163;SDS011;52962;51.088;3.096;2023-05-17T14:38:18;1.50;;;0.60;;
66163;SDS011;52962;51.088;3.096;2023-05-17T14:40:47;1.00;;;0.65;;
66163;SDS011;52962;51.088;3.096;2023-05-17T14:45:46;1.15;;;0.60;;
66163;SDS011;52962;51.088;3.096;2023-05-17T14:48:14;1.40;;;0.70;;
66163;SDS011;52962;51.088;3.096;2023-05-17T14:50:43;3.58;;;1.15;;
66163;SDS011;52962;51.088;3.096;2023-05-17T14:53:11;1.55;;;0.75;;
66163;SDS011;52962;51.088;3.096;2023-05-17T14:58:07;1.05;;;0.70;;
66163;SDS011;52962;51.088;3.096;2023-05-17T15:00:37;1.10;;;0.50;;
66163;SDS011;52962;51.088;3.096;2023-05-17T15:03:08;5.32;;;1.17;;
66163;SDS011;52962;51.088;3.096;2023-05-17T15:05:37;1.73;;;0.82;;
66163;SDS011;52962;51.088;3.096;2023-05-17T15:08:05;1.15;;;0.60;;
66163;SDS011;52962;51.088;3.096;2023-05-17T15:13:02;1.05;;;0.80;;
66163;SDS011;52962;51.088;3.096;2023-05-17T15:15:31;1.98;;;0.80;;
66163;SDS011;52962;51.088;3.096;2023-05-17T15:17:59;0.77;;;0.50;;
66163;SDS011;52962;51.088;3.096;2023-05-17T15:20:28;1.85;;;0.57;;
66163;SDS011;52962;51.088;3.096;2023-05-17T15:22:56;1.50;;;0.70;;
66163;SDS011;52962;51.088;3.096;2023-05-17T15:25:24;2.30;;;0.80;;
66163;SDS011;52962;51.088;3.096;2023-05-17T15:27:52;1.30;;;0.50;;
66163;SDS011;52962;51.088;3.096;2023-05-17T15:30:20;1.60;;;0.80;;
66163;SDS011;52962;51.088;3.096;2023-05-17T15:32:52;1.95;;;1.30;;
66163;SDS011;52962;51.088;3.096;2023-05-17T15:37:50;5.78;;;1.25;;
66163;SDS011;52962;51.088;3.096;2023-05-17T15:40:19;1.00;;;0.80;;
66163;SDS011;52962;51.088;3.096;2023-05-17T15:42:48;1.60;;;0.70;;
66163;SDS011;52962;51.088;3.096;2023-05-17T15:45:16;3.38;;;0.88;;
66163;SDS011;52962;51.088;3.096;2023-05-17T15:47:45;3.55;;;1.05;;
66163;SDS011;52962;51.088;3.096;2023-05-17T15:50:14;2.88;;;0.90;;
66163;SDS011;52962;51.088;3.096;2023-05-17T15:52:42;2.05;;;0.82;;
66163;SDS011;52962;51.088;3.096;2023-05-17T15:55:14;5.13;;;1.08;;